Oil, Indiana
Current Conditions -  °F | °C
As of 6:35 AM on Monday 20 Oct 2014 (Local Time) from KHNB Reporting Station
Scattered Clouds Scattered Clouds  
Wind Chill: 45°   Ceiling: Unl
Heat Index: 48°   Visibility: 10mi
Dew Point: 45°   Wind: 8mph
Humidity: 87%   Direction: 210°SSW
Pressure: 30.03"   Gusts: NA
Location:  38.232°N, 86.6107°W
Report Text: KHNB 201135Z AUTO 21007KT 10SM SCT110 09/07 A3003 RMK AO1
Loading
Personal Weather Stations






























Interactive Weather Map
Tropical Storm Tracking
New forecast layout! Learn more

10-Day Weather Forecast

Advertisements
Track Severe Weather on mobile